UAE396 OMDB-VTSP
Flight info
| Callsign | UAE396 |
|---|---|
| Flight time | 5h 44m |
| Altitude | 35000 |
| Route | IVURO M428 MUNGA A777 VAXIM P307 PARAR N571 SUGID/N0484F370 N571 RUPTI L645 UBNEN UBNEN1C |
| Aircraft | B77W/H-SDE1E2E3FGHIJ2J3J4J5M1RWXY/LB1D1 |
Departure
| Time | 2026-04-26 11:36 |
|---|---|
| Airport | Dubai International Airport (OMDB) |
Arrival
| Time | 2026-04-26 17:21 |
|---|---|
| Airport | Phuket International Airport (VTSP) |
| Time | Latitude | Longitude | Altitude | Speed | Heading |
|---|---|---|---|---|---|
| 2026-04-26 10:22 | 25.24591 | 55.36424 | 29 ft | 0 kts | 31° |
| 2026-04-26 10:40 | 25.24590 | 55.36424 | 26 ft | 0 kts | 31° |
| 2026-04-26 10:52 | 25.24590 | 55.36423 | 26 ft | 0 kts | 31° |
| 2026-04-26 11:08 | 25.24589 | 55.36423 | 32 ft | 0 kts | 31° |
| 2026-04-26 11:15 | 25.24581 | 55.36417 | 30 ft | 4 kts | 31° |
| 2026-04-26 11:15 | 25.24558 | 55.36402 | 29 ft | 3 kts | 37° |
| 2026-04-26 11:15 | 25.24538 | 55.36385 | 26 ft | 4 kts | 7° |
| 2026-04-26 11:15 | 25.24516 | 55.36387 | 26 ft | 4 kts | 326° |
| 2026-04-26 11:16 | 25.24501 | 55.36409 | 30 ft | 3 kts | 295° |
| 2026-04-26 11:16 | 25.24495 | 55.36422 | 27 ft | 1 kts | 302° |
| 2026-04-26 11:16 | 25.24495 | 55.36423 | 26 ft | 2 kts | 302° |
| 2026-04-26 11:19 | 25.24497 | 55.36418 | 31 ft | 4 kts | 302° |
| 2026-04-26 11:20 | 25.24522 | 55.36372 | 27 ft | 11 kts | 297° |
| 2026-04-26 11:20 | 25.24544 | 55.36306 | 30 ft | 14 kts | 283° |
| 2026-04-26 11:20 | 25.24564 | 55.36161 | 31 ft | 14 kts | 288° |
| 2026-04-26 11:20 | 25.24612 | 55.36064 | 27 ft | 15 kts | 301° |
| 2026-04-26 11:21 | 25.24666 | 55.35968 | 30 ft | 15 kts | 301° |
| 2026-04-26 11:21 | 25.24719 | 55.35873 | 27 ft | 15 kts | 303° |
| 2026-04-26 11:21 | 25.24773 | 55.35777 | 29 ft | 15 kts | 301° |
| 2026-04-26 11:21 | 25.24829 | 55.35684 | 29 ft | 15 kts | 305° |
| 2026-04-26 11:22 | 25.24889 | 55.35593 | 29 ft | 15 kts | 305° |
| 2026-04-26 11:22 | 25.24944 | 55.35499 | 29 ft | 15 kts | 301° |
| 2026-04-26 11:22 | 25.24997 | 55.35404 | 29 ft | 15 kts | 302° |
| 2026-04-26 11:22 | 25.25051 | 55.35309 | 28 ft | 15 kts | 303° |
| 2026-04-26 11:23 | 25.25108 | 55.35216 | 26 ft | 15 kts | 305° |
| 2026-04-26 11:23 | 25.25166 | 55.35126 | 31 ft | 15 kts | 304° |
| 2026-04-26 11:23 | 25.25222 | 55.35031 | 31 ft | 15 kts | 302° |
| 2026-04-26 11:23 | 25.25275 | 55.34936 | 30 ft | 15 kts | 301° |
| 2026-04-26 11:24 | 25.25326 | 55.34839 | 30 ft | 14 kts | 300° |
| 2026-04-26 11:24 | 25.25398 | 55.34809 | 31 ft | 21 kts | 348° |
| 2026-04-26 11:24 | 25.25516 | 55.34832 | 28 ft | 15 kts | 24° |
| 2026-04-26 11:24 | 25.25597 | 55.34887 | 29 ft | 13 kts | 32° |
| 2026-04-26 11:25 | 25.25626 | 55.34907 | 26 ft | 1 kts | 31° |
| 2026-04-26 11:25 | 25.25648 | 55.34921 | 31 ft | 8 kts | 31° |
| 2026-04-26 11:25 | 25.25657 | 55.34927 | 26 ft | 0 kts | 31° |
| 2026-04-26 11:26 | 25.25665 | 55.34932 | 26 ft | 8 kts | 31° |
| 2026-04-26 11:26 | 25.25722 | 55.34970 | 26 ft | 10 kts | 31° |
| 2026-04-26 11:27 | 25.25780 | 55.35010 | 27 ft | 10 kts | 31° |
| 2026-04-26 11:27 | 25.25839 | 55.35049 | 29 ft | 10 kts | 30° |
| 2026-04-26 11:27 | 25.25913 | 55.35098 | 31 ft | 16 kts | 31° |
| 2026-04-26 11:27 | 25.26008 | 55.35162 | 26 ft | 15 kts | 31° |
| 2026-04-26 11:28 | 25.26096 | 55.35222 | 27 ft | 15 kts | 36° |
| 2026-04-26 11:28 | 25.26113 | 55.35326 | 28 ft | 15 kts | 110° |
| 2026-04-26 11:28 | 25.26057 | 55.35434 | 28 ft | 17 kts | 122° |
| 2026-04-26 11:28 | 25.25994 | 55.35551 | 28 ft | 18 kts | 120° |
| 2026-04-26 11:29 | 25.25929 | 55.35668 | 28 ft | 18 kts | 122° |
| 2026-04-26 11:29 | 25.25862 | 55.35783 | 28 ft | 18 kts | 122° |
| 2026-04-26 11:29 | 25.25796 | 55.35898 | 28 ft | 18 kts | 121° |
| 2026-04-26 11:29 | 25.25731 | 55.36015 | 28 ft | 18 kts | 121° |
| 2026-04-26 11:30 | 25.25666 | 55.36132 | 28 ft | 18 kts | 122° |
| 2026-04-26 11:30 | 25.25621 | 55.36208 | 29 ft | 18 kts | 123° |
| 2026-04-26 11:30 | 25.25533 | 55.36365 | 28 ft | 18 kts | 121° |
| 2026-04-26 11:30 | 25.25490 | 55.36444 | 29 ft | 18 kts | 122° |
| 2026-04-26 11:31 | 25.25423 | 55.36563 | 29 ft | 18 kts | 122° |
| 2026-04-26 11:31 | 25.25354 | 55.36686 | 28 ft | 22 kts | 122° |
| 2026-04-26 11:31 | 25.25251 | 55.36870 | 29 ft | 30 kts | 121° |
| 2026-04-26 11:31 | 25.25145 | 55.37060 | 30 ft | 28 kts | 121° |
| 2026-04-26 11:32 | 25.25033 | 55.37260 | 30 ft | 20 kts | 121° |
| 2026-04-26 11:32 | 25.24957 | 55.37392 | 30 ft | 20 kts | 123° |
| 2026-04-26 11:32 | 25.24906 | 55.37481 | 30 ft | 20 kts | 121° |
| 2026-04-26 11:32 | 25.24809 | 55.37658 | 30 ft | 20 kts | 123° |
| 2026-04-26 11:33 | 25.24764 | 55.37737 | 29 ft | 16 kts | 122° |
| 2026-04-26 11:33 | 25.24706 | 55.37840 | 29 ft | 15 kts | 121° |
| 2026-04-26 11:33 | 25.24679 | 55.37943 | 29 ft | 15 kts | 65° |
| 2026-04-26 11:33 | 25.24761 | 55.38012 | 34 ft | 15 kts | 21° |
| 2026-04-26 11:34 | 25.24843 | 55.37960 | 34 ft | 7 kts | 303° |
| 2026-04-26 11:34 | 25.24844 | 55.37959 | 34 ft | 0 kts | 303° |
| 2026-04-26 11:34 | 25.24845 | 55.37958 | 34 ft | 0 kts | 302° |
| 2026-04-26 11:35 | 25.24848 | 55.37953 | 35 ft | 7 kts | 302° |
| 2026-04-26 11:36 | 25.25014 | 55.37655 | 35 ft | 87 kts | 301° |
| 2026-04-26 11:36 | 25.25440 | 55.36888 | 34 ft | 148 kts | 301° |
| 2026-04-26 11:36 | 25.26056 | 55.35769 | 149 ft | 183 kts | 301° |
| 2026-04-26 11:36 | 25.26707 | 55.34584 | 860 ft | 178 kts | 301° |
| 2026-04-26 11:37 | 25.27354 | 55.33419 | 1565 ft | 179 kts | 301° |
| 2026-04-26 11:37 | 25.28031 | 55.32208 | 1939 ft | 197 kts | 302° |
| 2026-04-26 11:37 | 25.28796 | 55.30838 | 2216 ft | 218 kts | 303° |
| 2026-04-26 11:37 | 25.29907 | 55.29667 | 2670 ft | 229 kts | 338° |
| 2026-04-26 11:38 | 25.31490 | 55.29454 | 3280 ft | 231 kts | 2° |
| 2026-04-26 11:38 | 25.33114 | 55.29541 | 3826 ft | 236 kts | 360° |
| 2026-04-26 11:38 | 25.34771 | 55.29586 | 4554 ft | 238 kts | 359° |
| 2026-04-26 11:38 | 25.36430 | 55.29628 | 5287 ft | 239 kts | 359° |
| 2026-04-26 11:39 | 25.38109 | 55.29668 | 5927 ft | 242 kts | 359° |
| 2026-04-26 11:39 | 25.39763 | 55.30050 | 6456 ft | 251 kts | 27° |
| 2026-04-26 11:39 | 25.41115 | 55.31377 | 6698 ft | 273 kts | 50° |
| 2026-04-26 11:39 | 25.42319 | 55.33086 | 7088 ft | 287 kts | 49° |
| 2026-04-26 11:40 | 25.43584 | 55.34838 | 7665 ft | 295 kts | 49° |
| 2026-04-26 11:40 | 25.44879 | 55.36627 | 8334 ft | 299 kts | 49° |
| 2026-04-26 11:40 | 25.46193 | 55.38430 | 8998 ft | 303 kts | 49° |
| 2026-04-26 11:40 | 25.47529 | 55.40259 | 9665 ft | 307 kts | 49° |
| 2026-04-26 11:41 | 25.48859 | 55.42091 | 10280 ft | 313 kts | 50° |
| 2026-04-26 11:42 | 25.48205 | 55.59609 | 13129 ft | 407 kts | 125° |
| 2026-04-26 11:43 | 25.46668 | 55.62258 | 13960 ft | 410 kts | 125° |
| 2026-04-26 11:43 | 25.45133 | 55.64938 | 14707 ft | 416 kts | 124° |
| 2026-04-26 11:43 | 25.43577 | 55.67665 | 15434 ft | 421 kts | 124° |
| 2026-04-26 11:43 | 25.42207 | 55.70531 | 15994 ft | 428 kts | 111° |
| 2026-04-26 11:44 | 25.41530 | 55.73774 | 16583 ft | 437 kts | 101° |
| 2026-04-26 11:44 | 25.40976 | 55.77091 | 17303 ft | 440 kts | 103° |
| 2026-04-26 11:44 | 25.40319 | 55.80405 | 18057 ft | 442 kts | 105° |
| 2026-04-26 11:44 | 25.39610 | 55.83689 | 18735 ft | 447 kts | 105° |
| 2026-04-26 11:45 | 25.38870 | 55.87053 | 19352 ft | 452 kts | 105° |
| 2026-04-26 11:45 | 25.38133 | 55.90453 | 19960 ft | 457 kts | 105° |
| 2026-04-26 11:45 | 25.37395 | 55.93892 | 20576 ft | 462 kts | 105° |
| 2026-04-26 11:45 | 25.36655 | 55.97366 | 21141 ft | 467 kts | 105° |
| 2026-04-26 11:46 | 25.35905 | 56.00886 | 21722 ft | 472 kts | 105° |
| 2026-04-26 11:46 | 25.35148 | 56.04428 | 22289 ft | 476 kts | 105° |
| 2026-04-26 11:46 | 25.34384 | 56.08000 | 22837 ft | 480 kts | 105° |
| 2026-04-26 11:46 | 25.33612 | 56.11614 | 23369 ft | 484 kts | 105° |
| 2026-04-26 11:47 | 25.32830 | 56.15249 | 23866 ft | 488 kts | 105° |
| 2026-04-26 11:47 | 25.31880 | 56.18860 | 24345 ft | 491 kts | 111° |
| 2026-04-26 11:47 | 25.30711 | 56.22370 | 24823 ft | 493 kts | 114° |
| 2026-04-26 11:47 | 25.29455 | 56.25903 | 25323 ft | 496 kts | 114° |
| 2026-04-26 11:48 | 25.28207 | 56.29474 | 25828 ft | 499 kts | 113° |
| 2026-04-26 11:48 | 25.27001 | 56.33087 | 26290 ft | 502 kts | 112° |
| 2026-04-26 11:48 | 25.25812 | 56.36725 | 26730 ft | 505 kts | 112° |
| 2026-04-26 11:48 | 25.24616 | 56.40387 | 27180 ft | 508 kts | 112° |
| 2026-04-26 11:49 | 25.23406 | 56.44068 | 27600 ft | 511 kts | 112° |
| 2026-04-26 11:49 | 25.22185 | 56.47764 | 28019 ft | 513 kts | 112° |
| 2026-04-26 11:49 | 25.20960 | 56.51465 | 28444 ft | 514 kts | 112° |
| 2026-04-26 11:49 | 25.19729 | 56.55189 | 28783 ft | 517 kts | 112° |
| 2026-04-26 11:50 | 25.18489 | 56.58928 | 29127 ft | 520 kts | 113° |
| 2026-04-26 11:50 | 25.17171 | 56.62648 | 29473 ft | 521 kts | 115° |
| 2026-04-26 11:50 | 25.15775 | 56.66343 | 29841 ft | 521 kts | 116° |
| 2026-04-26 11:50 | 25.14352 | 56.70017 | 30316 ft | 519 kts | 116° |
| 2026-04-26 11:51 | 25.12945 | 56.73636 | 30726 ft | 520 kts | 115° |
| 2026-04-26 11:51 | 25.11503 | 56.77369 | 30938 ft | 524 kts | 115° |
| 2026-04-26 11:51 | 25.10098 | 56.81036 | 31190 ft | 527 kts | 115° |
| 2026-04-26 11:51 | 25.08677 | 56.84770 | 31540 ft | 528 kts | 114° |
| 2026-04-26 11:52 | 25.07258 | 56.88513 | 31889 ft | 529 kts | 114° |
| 2026-04-26 11:52 | 25.06316 | 56.91003 | 32061 ft | 531 kts | 114° |
| 2026-04-26 11:52 | 25.04405 | 56.96044 | 32377 ft | 534 kts | 113° |
| 2026-04-26 11:52 | 25.02969 | 56.99826 | 32672 ft | 536 kts | 113° |
| 2026-04-26 11:53 | 25.01529 | 57.03621 | 33001 ft | 536 kts | 112° |
| 2026-04-26 11:53 | 25.00087 | 57.07416 | 33232 ft | 539 kts | 112° |
| 2026-04-26 11:53 | 24.98632 | 57.11229 | 33483 ft | 540 kts | 112° |
| 2026-04-26 11:54 | 24.95728 | 57.18839 | 34009 ft | 543 kts | 111° |
| 2026-04-26 11:54 | 24.94261 | 57.22684 | 34266 ft | 544 kts | 111° |
| 2026-04-26 11:54 | 24.92793 | 57.26529 | 34615 ft | 544 kts | 111° |
| 2026-04-26 11:54 | 24.91323 | 57.30369 | 34860 ft | 545 kts | 111° |
| 2026-04-26 11:55 | 24.89846 | 57.34225 | 34814 ft | 546 kts | 111° |
| 2026-04-26 11:55 | 24.86907 | 57.41875 | 34797 ft | 539 kts | 111° |
| 2026-04-26 11:56 | 24.83989 | 57.49472 | 34813 ft | 538 kts | 111° |
| 2026-04-26 11:56 | 24.81066 | 57.57062 | 34811 ft | 538 kts | 111° |
| 2026-04-26 11:57 | 24.78160 | 57.64609 | 34829 ft | 539 kts | 111° |
| 2026-04-26 11:57 | 24.75222 | 57.72214 | 34815 ft | 540 kts | 111° |
| 2026-04-26 11:58 | 24.72366 | 57.79859 | 34813 ft | 539 kts | 107° |
| 2026-04-26 11:58 | 24.69929 | 57.87657 | 34830 ft | 540 kts | 106° |
| 2026-04-26 11:59 | 24.67522 | 57.95492 | 34809 ft | 541 kts | 106° |
| 2026-04-26 11:59 | 24.65088 | 58.03319 | 34833 ft | 541 kts | 107° |
| 2026-04-26 12:00 | 24.62640 | 58.11117 | 34808 ft | 538 kts | 107° |
| 2026-04-26 12:00 | 24.60211 | 58.18820 | 34812 ft | 535 kts | 107° |
| 2026-04-26 12:01 | 24.57780 | 58.26528 | 34806 ft | 533 kts | 107° |
| 2026-04-26 12:01 | 24.55356 | 58.34216 | 34799 ft | 531 kts | 107° |
| 2026-04-26 12:02 | 24.52930 | 58.41869 | 34817 ft | 530 kts | 107° |
| 2026-04-26 12:02 | 24.50502 | 58.49517 | 34829 ft | 530 kts | 107° |
| 2026-04-26 12:03 | 24.48072 | 58.57173 | 34817 ft | 530 kts | 107° |
| 2026-04-26 12:03 | 24.45638 | 58.64818 | 34807 ft | 531 kts | 108° |
| 2026-04-26 12:04 | 24.43209 | 58.72426 | 34810 ft | 531 kts | 108° |
| 2026-04-26 12:04 | 24.40426 | 58.79938 | 34794 ft | 532 kts | 115° |
| 2026-04-26 12:05 | 24.37147 | 58.87202 | 34806 ft | 530 kts | 115° |
| 2026-04-26 12:05 | 24.33871 | 58.94434 | 34805 ft | 529 kts | 115° |
| 2026-04-26 12:06 | 24.30632 | 59.01671 | 34811 ft | 527 kts | 115° |
| 2026-04-26 12:06 | 24.27425 | 59.08878 | 34814 ft | 525 kts | 115° |
| 2026-04-26 12:07 | 24.24227 | 59.16050 | 34802 ft | 523 kts | 115° |
| 2026-04-26 12:07 | 24.21055 | 59.23142 | 34796 ft | 521 kts | 115° |
| 2026-04-26 12:08 | 24.17859 | 59.30274 | 34805 ft | 521 kts | 115° |
| 2026-04-26 12:08 | 24.14661 | 59.37404 | 34804 ft | 521 kts | 115° |
| 2026-04-26 12:09 | 24.11457 | 59.44538 | 34806 ft | 522 kts | 115° |
| 2026-04-26 12:09 | 24.08275 | 59.51607 | 34796 ft | 523 kts | 115° |
| 2026-04-26 12:10 | 24.05047 | 59.58747 | 34799 ft | 523 kts | 115° |
| 2026-04-26 12:10 | 24.01841 | 59.65831 | 34798 ft | 523 kts | 115° |
| 2026-04-26 12:11 | 23.98615 | 59.72950 | 34789 ft | 522 kts | 115° |
| 2026-04-26 12:11 | 23.95391 | 59.80055 | 34787 ft | 521 kts | 115° |
| 2026-04-26 12:12 | 23.92169 | 59.87144 | 34784 ft | 520 kts | 115° |
| 2026-04-26 12:12 | 23.88951 | 59.94213 | 34789 ft | 519 kts | 115° |
| 2026-04-26 12:13 | 23.85731 | 60.01280 | 34787 ft | 518 kts | 115° |
| 2026-04-26 12:13 | 23.82511 | 60.08337 | 34789 ft | 518 kts | 115° |
| 2026-04-26 12:14 | 23.79308 | 60.15343 | 34788 ft | 519 kts | 115° |
| 2026-04-26 12:14 | 23.76087 | 60.22379 | 34785 ft | 518 kts | 115° |
| 2026-04-26 12:15 | 23.72858 | 60.29420 | 34777 ft | 519 kts | 115° |
| 2026-04-26 12:15 | 23.69621 | 60.36469 | 34776 ft | 518 kts | 116° |
| 2026-04-26 12:16 | 23.66407 | 60.43459 | 34775 ft | 518 kts | 116° |
| 2026-04-26 12:16 | 23.63172 | 60.50483 | 34776 ft | 517 kts | 116° |
| 2026-04-26 12:17 | 23.59940 | 60.57491 | 34775 ft | 516 kts | 116° |
| 2026-04-26 12:17 | 23.56712 | 60.64478 | 34778 ft | 516 kts | 116° |
| 2026-04-26 12:18 | 23.53503 | 60.71416 | 34775 ft | 515 kts | 116° |
| 2026-04-26 12:18 | 23.50279 | 60.78378 | 34776 ft | 514 kts | 116° |
| 2026-04-26 12:19 | 23.47049 | 60.85339 | 34768 ft | 514 kts | 116° |
| 2026-04-26 12:19 | 23.43825 | 60.92278 | 34768 ft | 513 kts | 116° |
| 2026-04-26 12:20 | 23.40640 | 60.99126 | 34769 ft | 512 kts | 116° |
| 2026-04-26 12:20 | 23.37442 | 61.05992 | 34771 ft | 511 kts | 116° |
| 2026-04-26 12:21 | 23.34224 | 61.12894 | 34767 ft | 511 kts | 116° |
| 2026-04-26 12:21 | 23.31010 | 61.19785 | 34766 ft | 510 kts | 115° |
| 2026-04-26 12:22 | 23.27912 | 61.26714 | 34768 ft | 509 kts | 114° |
| 2026-04-26 12:22 | 23.25346 | 61.32539 | 34769 ft | 509 kts | 115° |
| 2026-04-26 12:23 | 23.22273 | 61.39477 | 34767 ft | 509 kts | 115° |
| 2026-04-26 12:23 | 23.19185 | 61.46397 | 34768 ft | 509 kts | 115° |
| 2026-04-26 12:24 | 23.16090 | 61.53314 | 34766 ft | 509 kts | 115° |
| 2026-04-26 12:24 | 23.13009 | 61.60196 | 34759 ft | 509 kts | 115° |
| 2026-04-26 12:25 | 23.08361 | 61.70567 | 34760 ft | 509 kts | 115° |
| 2026-04-26 12:25 | 23.05253 | 61.77486 | 34759 ft | 509 kts | 115° |
| 2026-04-26 12:26 | 23.02150 | 61.84393 | 34759 ft | 509 kts | 115° |
| 2026-04-26 12:26 | 22.99044 | 61.91301 | 34759 ft | 509 kts | 115° |
| 2026-04-26 12:27 | 22.95958 | 61.98152 | 34757 ft | 508 kts | 115° |
| 2026-04-26 12:27 | 22.92851 | 62.05044 | 34762 ft | 507 kts | 115° |
| 2026-04-26 12:28 | 22.89744 | 62.11922 | 34758 ft | 506 kts | 115° |
| 2026-04-26 12:28 | 22.86645 | 62.18774 | 34759 ft | 505 kts | 115° |
| 2026-04-26 12:29 | 22.83573 | 62.25563 | 34758 ft | 504 kts | 115° |
| 2026-04-26 12:30 | 22.78929 | 62.35797 | 34759 ft | 504 kts | 115° |
| 2026-04-26 12:30 | 22.75829 | 62.42622 | 34759 ft | 504 kts | 115° |
| 2026-04-26 12:31 | 22.71180 | 62.52830 | 34760 ft | 504 kts | 115° |
| 2026-04-26 12:31 | 22.68098 | 62.59591 | 34752 ft | 504 kts | 115° |
| 2026-04-26 12:32 | 22.64992 | 62.66393 | 34748 ft | 503 kts | 115° |
| 2026-04-26 12:33 | 22.60330 | 62.76586 | 34751 ft | 503 kts | 115° |
| 2026-04-26 12:33 | 22.57227 | 62.83363 | 34749 ft | 503 kts | 115° |
| 2026-04-26 12:34 | 22.54119 | 62.90136 | 34751 ft | 503 kts | 115° |
| 2026-04-26 12:34 | 22.51006 | 62.96912 | 34750 ft | 502 kts | 115° |
| 2026-04-26 12:35 | 22.47891 | 63.03686 | 34747 ft | 502 kts | 115° |
| 2026-04-26 12:35 | 22.44774 | 63.10451 | 34749 ft | 502 kts | 115° |
| 2026-04-26 12:36 | 22.41716 | 63.17177 | 34751 ft | 502 kts | 114° |
| 2026-04-26 12:36 | 22.38690 | 63.23973 | 34753 ft | 502 kts | 114° |
| 2026-04-26 12:37 | 22.35666 | 63.30762 | 34759 ft | 501 kts | 114° |
| 2026-04-26 12:37 | 22.32631 | 63.37545 | 34759 ft | 501 kts | 114° |
| 2026-04-26 12:38 | 22.29590 | 63.44321 | 34760 ft | 501 kts | 114° |
| 2026-04-26 12:38 | 22.26567 | 63.51044 | 34759 ft | 500 kts | 115° |
| 2026-04-26 12:39 | 22.23521 | 63.57806 | 34758 ft | 500 kts | 114° |
| 2026-04-26 12:39 | 22.20478 | 63.64556 | 34758 ft | 499 kts | 114° |
| 2026-04-26 12:40 | 22.17436 | 63.71298 | 34759 ft | 499 kts | 114° |
| 2026-04-26 12:40 | 22.14393 | 63.78033 | 34758 ft | 499 kts | 114° |
| 2026-04-26 12:41 | 22.11352 | 63.84752 | 34758 ft | 498 kts | 114° |
| 2026-04-26 12:41 | 22.08304 | 63.91473 | 34759 ft | 498 kts | 114° |
| 2026-04-26 12:42 | 22.05261 | 63.98182 | 34760 ft | 498 kts | 114° |
| 2026-04-26 12:42 | 22.02229 | 64.04850 | 34760 ft | 498 kts | 114° |
| 2026-04-26 12:43 | 21.99178 | 64.11558 | 34763 ft | 499 kts | 114° |
| 2026-04-26 12:43 | 21.97645 | 64.14926 | 34903 ft | 502 kts | 114° |
| 2026-04-26 12:43 | 21.96103 | 64.18310 | 35229 ft | 501 kts | 114° |
| 2026-04-26 12:43 | 21.94568 | 64.21675 | 35565 ft | 500 kts | 114° |
| 2026-04-26 12:44 | 21.93035 | 64.25034 | 35842 ft | 501 kts | 114° |
| 2026-04-26 12:44 | 21.91495 | 64.28405 | 36110 ft | 501 kts | 114° |
| 2026-04-26 12:44 | 21.89959 | 64.31767 | 36362 ft | 501 kts | 114° |
| 2026-04-26 12:44 | 21.88416 | 64.35142 | 36569 ft | 503 kts | 114° |
| 2026-04-26 12:45 | 21.86871 | 64.38520 | 36696 ft | 504 kts | 114° |
| 2026-04-26 12:45 | 21.83778 | 64.45271 | 36762 ft | 499 kts | 114° |
| 2026-04-26 12:46 | 21.80755 | 64.51860 | 36761 ft | 490 kts | 114° |
| 2026-04-26 12:46 | 21.77739 | 64.58429 | 36764 ft | 488 kts | 114° |
| 2026-04-26 12:47 | 21.74726 | 64.64985 | 36776 ft | 487 kts | 114° |
| 2026-04-26 12:47 | 21.71715 | 64.71526 | 36773 ft | 488 kts | 114° |
| 2026-04-26 12:48 | 21.68691 | 64.78086 | 36766 ft | 490 kts | 115° |
| 2026-04-26 12:48 | 21.65653 | 64.84667 | 36756 ft | 492 kts | 115° |
| 2026-04-26 12:49 | 21.62606 | 64.91264 | 36753 ft | 493 kts | 115° |
| 2026-04-26 12:49 | 21.59547 | 64.97874 | 36748 ft | 494 kts | 115° |
| 2026-04-26 12:50 | 21.56487 | 65.04478 | 36750 ft | 494 kts | 115° |
| 2026-04-26 12:50 | 21.53446 | 65.11033 | 36750 ft | 493 kts | 115° |
| 2026-04-26 12:51 | 21.50389 | 65.17612 | 36749 ft | 492 kts | 115° |
| 2026-04-26 12:51 | 21.47337 | 65.24175 | 36754 ft | 490 kts | 115° |
| 2026-04-26 12:52 | 21.44291 | 65.30716 | 36758 ft | 490 kts | 115° |
| 2026-04-26 12:52 | 21.41246 | 65.37249 | 36760 ft | 489 kts | 115° |
| 2026-04-26 12:53 | 21.38196 | 65.43781 | 36757 ft | 489 kts | 115° |
| 2026-04-26 12:53 | 21.35146 | 65.50306 | 36759 ft | 489 kts | 115° |
| 2026-04-26 12:54 | 21.32097 | 65.56822 | 36759 ft | 489 kts | 115° |
| 2026-04-26 12:54 | 21.29039 | 65.63351 | 36760 ft | 489 kts | 115° |
| 2026-04-26 12:55 | 21.25978 | 65.69876 | 36760 ft | 489 kts | 115° |
| 2026-04-26 12:55 | 21.22917 | 65.76392 | 36759 ft | 489 kts | 115° |
| 2026-04-26 12:56 | 21.19875 | 65.82862 | 36759 ft | 489 kts | 115° |
| 2026-04-26 12:56 | 21.16809 | 65.89373 | 36791 ft | 489 kts | 116° |
| 2026-04-26 12:57 | 21.13743 | 65.95880 | 36793 ft | 489 kts | 116° |
| 2026-04-26 12:57 | 21.10684 | 66.02390 | 36797 ft | 489 kts | 115° |
| 2026-04-26 12:58 | 21.06224 | 66.12218 | 36796 ft | 489 kts | 115° |
| 2026-04-26 12:58 | 21.03266 | 66.18766 | 36792 ft | 488 kts | 115° |
| 2026-04-26 12:59 | 21.00299 | 66.25295 | 36795 ft | 488 kts | 115° |
| 2026-04-26 12:59 | 20.97325 | 66.31813 | 36797 ft | 487 kts | 115° |
| 2026-04-26 13:00 | 20.94351 | 66.38329 | 36795 ft | 486 kts | 115° |
| 2026-04-26 13:00 | 20.91399 | 66.44790 | 36799 ft | 486 kts | 115° |
| 2026-04-26 13:01 | 20.88424 | 66.51287 | 36796 ft | 485 kts | 115° |
| 2026-04-26 13:01 | 20.85454 | 66.57771 | 36795 ft | 485 kts | 115° |
| 2026-04-26 13:02 | 20.82485 | 66.64246 | 36795 ft | 485 kts | 115° |
| 2026-04-26 13:02 | 20.79504 | 66.70736 | 36797 ft | 486 kts | 115° |
| 2026-04-26 13:03 | 20.76541 | 66.77181 | 36803 ft | 486 kts | 115° |
| 2026-04-26 13:03 | 20.73558 | 66.83666 | 36809 ft | 486 kts | 116° |
| 2026-04-26 13:04 | 20.70572 | 66.90140 | 36803 ft | 486 kts | 116° |
| 2026-04-26 13:04 | 20.67587 | 66.96608 | 36806 ft | 486 kts | 116° |
| 2026-04-26 13:05 | 20.64598 | 67.03080 | 36804 ft | 486 kts | 116° |
| 2026-04-26 13:05 | 20.61600 | 67.09558 | 36808 ft | 485 kts | 116° |
| 2026-04-26 13:06 | 20.58610 | 67.16018 | 36806 ft | 485 kts | 116° |
| 2026-04-26 13:06 | 20.55615 | 67.22477 | 36804 ft | 485 kts | 116° |
| 2026-04-26 13:07 | 20.52640 | 67.28886 | 36808 ft | 485 kts | 116° |
| 2026-04-26 13:07 | 20.49639 | 67.35342 | 36804 ft | 485 kts | 116° |
| 2026-04-26 13:08 | 20.46640 | 67.41785 | 36803 ft | 485 kts | 116° |
| 2026-04-26 13:08 | 20.43640 | 67.48225 | 36804 ft | 484 kts | 116° |
| 2026-04-26 13:09 | 20.40646 | 67.54645 | 36803 ft | 484 kts | 116° |
| 2026-04-26 13:09 | 20.38158 | 67.59975 | 36804 ft | 483 kts | 116° |
| 2026-04-26 13:10 | 20.35162 | 67.66387 | 36806 ft | 483 kts | 116° |
| 2026-04-26 13:10 | 20.32162 | 67.72794 | 36804 ft | 483 kts | 116° |
| 2026-04-26 13:11 | 20.29166 | 67.79189 | 36807 ft | 482 kts | 116° |
| 2026-04-26 13:11 | 20.25676 | 67.86628 | 36804 ft | 483 kts | 117° |
| 2026-04-26 13:12 | 20.23161 | 67.91982 | 36807 ft | 483 kts | 117° |
| 2026-04-26 13:12 | 20.20175 | 67.98331 | 36805 ft | 482 kts | 117° |
| 2026-04-26 13:13 | 20.17171 | 68.04718 | 36805 ft | 482 kts | 117° |
| 2026-04-26 13:13 | 20.14161 | 68.11107 | 36806 ft | 483 kts | 117° |
| 2026-04-26 13:14 | 20.11182 | 68.17420 | 36804 ft | 483 kts | 117° |
| 2026-04-26 13:14 | 20.08168 | 68.23800 | 36805 ft | 482 kts | 117° |
| 2026-04-26 13:15 | 20.05149 | 68.30179 | 36804 ft | 483 kts | 117° |
| 2026-04-26 13:15 | 20.02133 | 68.36555 | 36807 ft | 483 kts | 117° |
| 2026-04-26 13:16 | 19.99129 | 68.42896 | 36804 ft | 482 kts | 117° |
| 2026-04-26 13:16 | 19.96104 | 68.49270 | 36808 ft | 483 kts | 117° |
| 2026-04-26 13:17 | 19.91556 | 68.58843 | 36801 ft | 483 kts | 117° |
| 2026-04-26 13:18 | 19.87002 | 68.68409 | 36806 ft | 484 kts | 118° |
| 2026-04-26 13:19 | 19.82440 | 68.77979 | 36805 ft | 484 kts | 118° |
| 2026-04-26 13:19 | 19.79393 | 68.84363 | 36804 ft | 484 kts | 118° |
| 2026-04-26 13:20 | 19.76365 | 68.90698 | 36806 ft | 485 kts | 118° |
| 2026-04-26 13:20 | 19.73308 | 68.97084 | 36806 ft | 485 kts | 118° |
| 2026-04-26 13:21 | 19.70248 | 69.03475 | 36804 ft | 485 kts | 118° |
| 2026-04-26 13:21 | 19.67182 | 69.09862 | 36807 ft | 485 kts | 119° |
| 2026-04-26 13:22 | 19.64162 | 69.16156 | 36808 ft | 485 kts | 119° |
| 2026-04-26 13:22 | 19.61093 | 69.22544 | 36799 ft | 486 kts | 119° |
| 2026-04-26 13:23 | 19.58021 | 69.28933 | 36777 ft | 486 kts | 119° |
| 2026-04-26 13:23 | 19.54965 | 69.35280 | 36766 ft | 486 kts | 119° |
| 2026-04-26 13:24 | 19.51979 | 69.41701 | 36765 ft | 486 kts | 118° |
| 2026-04-26 13:24 | 19.49048 | 69.48154 | 36768 ft | 486 kts | 118° |
| 2026-04-26 13:25 | 19.46110 | 69.54608 | 36769 ft | 485 kts | 118° |
| 2026-04-26 13:25 | 19.43164 | 69.61041 | 36765 ft | 485 kts | 118° |
| 2026-04-26 13:26 | 19.40210 | 69.67473 | 36766 ft | 486 kts | 118° |
| 2026-04-26 13:26 | 19.37247 | 69.73907 | 36777 ft | 486 kts | 118° |
| 2026-04-26 13:27 | 19.34303 | 69.80296 | 36786 ft | 486 kts | 118° |
| 2026-04-26 13:27 | 19.31334 | 69.86735 | 36788 ft | 486 kts | 118° |
| 2026-04-26 13:28 | 19.28365 | 69.93168 | 36786 ft | 486 kts | 118° |
| 2026-04-26 13:28 | 19.25448 | 69.99483 | 36788 ft | 487 kts | 118° |
| 2026-04-26 13:29 | 19.22469 | 70.05920 | 36782 ft | 488 kts | 119° |
| 2026-04-26 13:29 | 19.19482 | 70.12368 | 36789 ft | 489 kts | 119° |
| 2026-04-26 13:30 | 19.16484 | 70.18837 | 36790 ft | 490 kts | 120° |
| 2026-04-26 13:30 | 19.13476 | 70.25313 | 36785 ft | 491 kts | 120° |
| 2026-04-26 13:31 | 19.10462 | 70.31799 | 36782 ft | 491 kts | 120° |
| 2026-04-26 13:31 | 19.07465 | 70.38243 | 36785 ft | 491 kts | 120° |
| 2026-04-26 13:32 | 19.04445 | 70.44730 | 36786 ft | 491 kts | 120° |
| 2026-04-26 13:32 | 19.01423 | 70.51211 | 36787 ft | 492 kts | 120° |
| 2026-04-26 13:33 | 18.98396 | 70.57697 | 36794 ft | 491 kts | 120° |
| 2026-04-26 13:33 | 18.95393 | 70.64127 | 36827 ft | 491 kts | 120° |
| 2026-04-26 13:34 | 18.92362 | 70.70602 | 36818 ft | 492 kts | 121° |
| 2026-04-26 13:34 | 18.89326 | 70.77080 | 36816 ft | 492 kts | 121° |
| 2026-04-26 13:35 | 18.86290 | 70.83556 | 36835 ft | 492 kts | 121° |
| 2026-04-26 13:35 | 18.83244 | 70.90045 | 36833 ft | 493 kts | 121° |
| 2026-04-26 13:36 | 18.80194 | 70.96538 | 36834 ft | 494 kts | 121° |
| 2026-04-26 13:36 | 18.77140 | 71.03034 | 36804 ft | 495 kts | 121° |
| 2026-04-26 13:37 | 18.74074 | 71.09542 | 36797 ft | 495 kts | 121° |
| 2026-04-26 13:37 | 18.71030 | 71.15998 | 36794 ft | 495 kts | 121° |
| 2026-04-26 13:38 | 18.67960 | 71.22503 | 36796 ft | 495 kts | 121° |
| 2026-04-26 13:38 | 18.64890 | 71.29004 | 36797 ft | 495 kts | 121° |
| 2026-04-26 13:39 | 18.61818 | 71.35504 | 36793 ft | 495 kts | 122° |
| 2026-04-26 13:39 | 18.58742 | 71.41998 | 36794 ft | 495 kts | 122° |
| 2026-04-26 13:40 | 18.55662 | 71.48496 | 36795 ft | 495 kts | 122° |
| 2026-04-26 13:40 | 18.52578 | 71.54993 | 36775 ft | 495 kts | 122° |
| 2026-04-26 13:41 | 18.49491 | 71.61484 | 36766 ft | 495 kts | 122° |
| 2026-04-26 13:41 | 18.46427 | 71.67935 | 36766 ft | 495 kts | 122° |
| 2026-04-26 13:42 | 18.43333 | 71.74431 | 36760 ft | 496 kts | 122° |
| 2026-04-26 13:42 | 18.40241 | 71.80922 | 36759 ft | 496 kts | 123° |
| 2026-04-26 13:43 | 18.37147 | 71.87412 | 36759 ft | 496 kts | 123° |
| 2026-04-26 13:43 | 18.34047 | 71.93901 | 36771 ft | 495 kts | 123° |
| 2026-04-26 13:44 | 18.30944 | 72.00387 | 36771 ft | 495 kts | 123° |
| 2026-04-26 13:44 | 18.27845 | 72.06865 | 36763 ft | 496 kts | 123° |
| 2026-04-26 13:45 | 18.24741 | 72.13344 | 36768 ft | 496 kts | 123° |
| 2026-04-26 13:45 | 18.21636 | 72.19822 | 36767 ft | 496 kts | 123° |
| 2026-04-26 13:46 | 18.18544 | 72.26257 | 36765 ft | 496 kts | 123° |
| 2026-04-26 13:46 | 18.15433 | 72.32730 | 36771 ft | 496 kts | 123° |
| 2026-04-26 13:47 | 18.12317 | 72.39206 | 36772 ft | 496 kts | 123° |
| 2026-04-26 13:47 | 18.09202 | 72.45674 | 36780 ft | 496 kts | 123° |
| 2026-04-26 13:48 | 18.06082 | 72.52150 | 36780 ft | 496 kts | 123° |
| 2026-04-26 13:48 | 18.02958 | 72.58621 | 36794 ft | 496 kts | 123° |
| 2026-04-26 13:49 | 17.99834 | 72.65089 | 36797 ft | 496 kts | 123° |
| 2026-04-26 13:49 | 17.96709 | 72.71550 | 36798 ft | 497 kts | 123° |
| 2026-04-26 13:50 | 17.93593 | 72.77985 | 36796 ft | 497 kts | 123° |
| 2026-04-26 13:50 | 17.90455 | 72.84462 | 36798 ft | 497 kts | 123° |
| 2026-04-26 13:51 | 17.87317 | 72.90932 | 36791 ft | 497 kts | 123° |
| 2026-04-26 13:51 | 17.84175 | 72.97399 | 36794 ft | 496 kts | 123° |
| 2026-04-26 13:52 | 17.81039 | 73.03849 | 36796 ft | 496 kts | 123° |
| 2026-04-26 13:52 | 17.77904 | 73.10295 | 36839 ft | 495 kts | 123° |
| 2026-04-26 13:53 | 17.74786 | 73.16698 | 36871 ft | 495 kts | 123° |
| 2026-04-26 13:53 | 17.71646 | 73.23136 | 36873 ft | 496 kts | 123° |
| 2026-04-26 13:54 | 17.68490 | 73.29583 | 36888 ft | 497 kts | 123° |
| 2026-04-26 13:54 | 17.65327 | 73.36039 | 36882 ft | 498 kts | 123° |
| 2026-04-26 13:55 | 17.61098 | 73.44659 | 36884 ft | 500 kts | 123° |
| 2026-04-26 13:56 | 17.55791 | 73.55473 | 36905 ft | 499 kts | 123° |
| 2026-04-26 13:56 | 17.52612 | 73.61942 | 36892 ft | 499 kts | 123° |
| 2026-04-26 13:57 | 17.49427 | 73.68417 | 36887 ft | 499 kts | 123° |
| 2026-04-26 13:57 | 17.46263 | 73.74836 | 36884 ft | 499 kts | 123° |
| 2026-04-26 13:58 | 17.43083 | 73.81281 | 36886 ft | 497 kts | 123° |
| 2026-04-26 13:58 | 17.40422 | 73.86676 | 36873 ft | 497 kts | 123° |
| 2026-04-26 13:59 | 17.37246 | 73.93102 | 36888 ft | 497 kts | 123° |
| 2026-04-26 13:59 | 17.34087 | 73.99493 | 36883 ft | 498 kts | 123° |
| 2026-04-26 14:00 | 17.27714 | 74.12363 | 36890 ft | 498 kts | 123° |
| 2026-04-26 14:01 | 17.24523 | 74.18801 | 36874 ft | 498 kts | 123° |
| 2026-04-26 14:01 | 17.21335 | 74.25226 | 36885 ft | 498 kts | 123° |
| 2026-04-26 14:02 | 17.18145 | 74.31652 | 36890 ft | 498 kts | 123° |
| 2026-04-26 14:02 | 17.14955 | 74.38087 | 36895 ft | 498 kts | 123° |
| 2026-04-26 14:03 | 17.11767 | 74.44512 | 36894 ft | 498 kts | 123° |
| 2026-04-26 14:03 | 17.08576 | 74.50936 | 36890 ft | 498 kts | 123° |
| 2026-04-26 14:04 | 17.05385 | 74.57358 | 36890 ft | 498 kts | 123° |
| 2026-04-26 14:04 | 17.02214 | 74.63732 | 36890 ft | 497 kts | 123° |
| 2026-04-26 14:05 | 16.99025 | 74.70135 | 36883 ft | 496 kts | 123° |
| 2026-04-26 14:05 | 16.95832 | 74.76535 | 36884 ft | 496 kts | 123° |
| 2026-04-26 14:06 | 16.92646 | 74.82916 | 36874 ft | 495 kts | 123° |
| 2026-04-26 14:06 | 16.89461 | 74.89294 | 36879 ft | 495 kts | 123° |
| 2026-04-26 14:07 | 16.86272 | 74.95669 | 36879 ft | 495 kts | 123° |
| 2026-04-26 14:07 | 16.83101 | 75.02007 | 36871 ft | 495 kts | 123° |
| 2026-04-26 14:08 | 16.79909 | 75.08376 | 36881 ft | 495 kts | 123° |
| 2026-04-26 14:08 | 16.76716 | 75.14745 | 36875 ft | 495 kts | 123° |
| 2026-04-26 14:09 | 16.73515 | 75.21122 | 36864 ft | 496 kts | 123° |
| 2026-04-26 14:09 | 16.70309 | 75.27504 | 36860 ft | 496 kts | 123° |
| 2026-04-26 14:10 | 16.67101 | 75.33883 | 36863 ft | 496 kts | 123° |
| 2026-04-26 14:10 | 16.63898 | 75.40249 | 36886 ft | 495 kts | 123° |
| 2026-04-26 14:11 | 16.59125 | 75.49824 | 36886 ft | 497 kts | 122° |
| 2026-04-26 14:11 | 16.56129 | 75.56319 | 36895 ft | 497 kts | 121° |
| 2026-04-26 14:12 | 16.53154 | 75.62831 | 36885 ft | 497 kts | 121° |
| 2026-04-26 14:12 | 16.50173 | 75.69277 | 36886 ft | 496 kts | 121° |
| 2026-04-26 14:13 | 16.45657 | 75.78976 | 36893 ft | 496 kts | 121° |
| 2026-04-26 14:14 | 16.42644 | 75.85440 | 36875 ft | 496 kts | 121° |
| 2026-04-26 14:14 | 16.39634 | 75.91897 | 36870 ft | 495 kts | 121° |
| 2026-04-26 14:15 | 16.36624 | 75.98347 | 36863 ft | 495 kts | 121° |
| 2026-04-26 14:15 | 16.33602 | 76.04796 | 36858 ft | 494 kts | 121° |
| 2026-04-26 14:16 | 16.30591 | 76.11178 | 36861 ft | 494 kts | 121° |
| 2026-04-26 14:16 | 16.27566 | 76.17592 | 36861 ft | 494 kts | 121° |
| 2026-04-26 14:17 | 16.24537 | 76.24012 | 36862 ft | 494 kts | 121° |
| 2026-04-26 14:17 | 16.21509 | 76.30428 | 36860 ft | 494 kts | 121° |
| 2026-04-26 14:18 | 16.18478 | 76.36846 | 36862 ft | 494 kts | 121° |
| 2026-04-26 14:18 | 16.15437 | 76.43277 | 36855 ft | 495 kts | 121° |
| 2026-04-26 14:19 | 16.12390 | 76.49710 | 36854 ft | 496 kts | 121° |
| 2026-04-26 14:19 | 16.09344 | 76.56144 | 36850 ft | 496 kts | 121° |
| 2026-04-26 14:20 | 16.06313 | 76.62531 | 36853 ft | 496 kts | 121° |
| 2026-04-26 14:20 | 16.03257 | 76.68966 | 36848 ft | 496 kts | 121° |
| 2026-04-26 14:21 | 16.00196 | 76.75410 | 36844 ft | 497 kts | 121° |
| 2026-04-26 14:21 | 15.97130 | 76.81857 | 36844 ft | 497 kts | 121° |
| 2026-04-26 14:22 | 15.94067 | 76.88298 | 36840 ft | 496 kts | 121° |
| 2026-04-26 14:22 | 15.91003 | 76.94724 | 36841 ft | 496 kts | 121° |
| 2026-04-26 14:23 | 15.87962 | 77.01099 | 36849 ft | 495 kts | 121° |
| 2026-04-26 14:23 | 15.84904 | 77.07507 | 36850 ft | 494 kts | 121° |
| 2026-04-26 14:24 | 15.81844 | 77.13910 | 36852 ft | 494 kts | 121° |
| 2026-04-26 14:24 | 15.78785 | 77.20308 | 36852 ft | 495 kts | 121° |
| 2026-04-26 14:25 | 15.75720 | 77.26712 | 36846 ft | 495 kts | 121° |
| 2026-04-26 14:25 | 15.72651 | 77.33121 | 36846 ft | 496 kts | 121° |
| 2026-04-26 14:26 | 15.69581 | 77.39541 | 36837 ft | 496 kts | 121° |
| 2026-04-26 14:26 | 15.66518 | 77.45967 | 36836 ft | 497 kts | 121° |
| 2026-04-26 14:27 | 15.63472 | 77.52357 | 36829 ft | 497 kts | 121° |
| 2026-04-26 14:27 | 15.60403 | 77.58784 | 36819 ft | 497 kts | 121° |
| 2026-04-26 14:28 | 15.57330 | 77.65215 | 36831 ft | 497 kts | 121° |
| 2026-04-26 14:28 | 15.54257 | 77.71639 | 36833 ft | 497 kts | 121° |
| 2026-04-26 14:29 | 15.51180 | 77.78065 | 36821 ft | 497 kts | 121° |
| 2026-04-26 14:29 | 15.48107 | 77.84479 | 36814 ft | 497 kts | 121° |
| 2026-04-26 14:30 | 15.45024 | 77.90906 | 36831 ft | 497 kts | 121° |
| 2026-04-26 14:30 | 15.41946 | 77.97316 | 36833 ft | 497 kts | 121° |
| 2026-04-26 14:31 | 15.38883 | 78.03692 | 36822 ft | 497 kts | 120° |
| 2026-04-26 14:31 | 15.35801 | 78.10102 | 36819 ft | 497 kts | 120° |
| 2026-04-26 14:32 | 15.32692 | 78.16497 | 36831 ft | 497 kts | 121° |
| 2026-04-26 14:32 | 15.29562 | 78.22884 | 36831 ft | 497 kts | 121° |
| 2026-04-26 14:33 | 15.26428 | 78.29275 | 36813 ft | 497 kts | 121° |
| 2026-04-26 14:33 | 15.23297 | 78.35671 | 36814 ft | 497 kts | 121° |
| 2026-04-26 14:34 | 15.20167 | 78.42068 | 36812 ft | 498 kts | 121° |
| 2026-04-26 14:34 | 15.17035 | 78.48456 | 36804 ft | 498 kts | 121° |
| 2026-04-26 14:35 | 15.13915 | 78.54815 | 36796 ft | 498 kts | 121° |
| 2026-04-26 14:35 | 15.10771 | 78.61218 | 36791 ft | 498 kts | 121° |
| 2026-04-26 14:36 | 15.07627 | 78.67612 | 36778 ft | 498 kts | 121° |
| 2026-04-26 14:36 | 15.04481 | 78.74008 | 36774 ft | 498 kts | 121° |
| 2026-04-26 14:37 | 15.01332 | 78.80402 | 36768 ft | 498 kts | 121° |
| 2026-04-26 14:37 | 14.98207 | 78.86743 | 36759 ft | 498 kts | 121° |
| 2026-04-26 14:38 | 14.95058 | 78.93128 | 36748 ft | 498 kts | 121° |
| 2026-04-26 14:38 | 14.91907 | 78.99511 | 36748 ft | 498 kts | 121° |
| 2026-04-26 14:39 | 14.88759 | 79.05884 | 36753 ft | 498 kts | 121° |
| 2026-04-26 14:39 | 14.85608 | 79.12257 | 36750 ft | 498 kts | 121° |
| 2026-04-26 14:40 | 14.82451 | 79.18636 | 36747 ft | 498 kts | 121° |
| 2026-04-26 14:40 | 14.79299 | 79.25001 | 36747 ft | 498 kts | 121° |
| 2026-04-26 14:41 | 14.76141 | 79.31371 | 36750 ft | 498 kts | 121° |
| 2026-04-26 14:41 | 14.73001 | 79.37700 | 36748 ft | 498 kts | 121° |
| 2026-04-26 14:42 | 14.69842 | 79.44061 | 36750 ft | 498 kts | 121° |
| 2026-04-26 14:42 | 14.66675 | 79.50433 | 36759 ft | 498 kts | 121° |
| 2026-04-26 14:43 | 14.63507 | 79.56801 | 36761 ft | 499 kts | 121° |
| 2026-04-26 14:43 | 14.60339 | 79.63168 | 36774 ft | 498 kts | 121° |
| 2026-04-26 14:44 | 14.57163 | 79.69539 | 36780 ft | 499 kts | 121° |
| 2026-04-26 14:44 | 14.53990 | 79.75903 | 36773 ft | 499 kts | 121° |
| 2026-04-26 14:45 | 14.50814 | 79.82270 | 36785 ft | 499 kts | 121° |
| 2026-04-26 14:45 | 14.47633 | 79.88639 | 36806 ft | 498 kts | 121° |
| 2026-04-26 14:46 | 14.44991 | 79.93921 | 36814 ft | 498 kts | 121° |
| 2026-04-26 14:46 | 14.41287 | 80.01328 | 36795 ft | 499 kts | 121° |
| 2026-04-26 14:47 | 14.38104 | 80.07685 | 36788 ft | 499 kts | 121° |
| 2026-04-26 14:47 | 14.35455 | 80.12971 | 36786 ft | 499 kts | 121° |
| 2026-04-26 14:48 | 14.32270 | 80.19323 | 36786 ft | 499 kts | 121° |
| 2026-04-26 14:48 | 14.29080 | 80.25680 | 36783 ft | 498 kts | 121° |
| 2026-04-26 14:49 | 14.25890 | 80.32029 | 36786 ft | 498 kts | 121° |
| 2026-04-26 14:49 | 14.22702 | 80.38371 | 36788 ft | 498 kts | 121° |
| 2026-04-26 14:50 | 14.19518 | 80.44699 | 36786 ft | 497 kts | 121° |
| 2026-04-26 14:50 | 14.16330 | 80.51035 | 36787 ft | 498 kts | 121° |
| 2026-04-26 14:51 | 14.13154 | 80.57339 | 36786 ft | 498 kts | 121° |
| 2026-04-26 14:51 | 14.09958 | 80.63675 | 36787 ft | 498 kts | 121° |
| 2026-04-26 14:52 | 14.06764 | 80.70006 | 36793 ft | 498 kts | 121° |
| 2026-04-26 14:52 | 14.03567 | 80.76338 | 36803 ft | 498 kts | 121° |
| 2026-04-26 14:53 | 14.00371 | 80.82661 | 36809 ft | 498 kts | 121° |
| 2026-04-26 14:53 | 13.97230 | 80.89021 | 36812 ft | 498 kts | 119° |
| 2026-04-26 14:54 | 13.94169 | 80.95366 | 36804 ft | 498 kts | 119° |
| 2026-04-26 14:54 | 13.91082 | 81.01753 | 36805 ft | 497 kts | 119° |
| 2026-04-26 14:55 | 13.87988 | 81.08121 | 36804 ft | 497 kts | 119° |
| 2026-04-26 14:55 | 13.84892 | 81.14477 | 36805 ft | 497 kts | 119° |
| 2026-04-26 14:56 | 13.81799 | 81.20827 | 36806 ft | 496 kts | 119° |
| 2026-04-26 14:56 | 13.78722 | 81.27134 | 36802 ft | 496 kts | 119° |
| 2026-04-26 14:57 | 13.75630 | 81.33472 | 36807 ft | 496 kts | 119° |
| 2026-04-26 14:57 | 13.72534 | 81.39811 | 36809 ft | 496 kts | 119° |
| 2026-04-26 14:58 | 13.69441 | 81.46143 | 36803 ft | 495 kts | 119° |
| 2026-04-26 14:58 | 13.66347 | 81.52478 | 36806 ft | 495 kts | 119° |
| 2026-04-26 14:59 | 13.63255 | 81.58809 | 36806 ft | 495 kts | 119° |
| 2026-04-26 14:59 | 13.60160 | 81.65144 | 36813 ft | 495 kts | 119° |
| 2026-04-26 15:00 | 13.57082 | 81.71437 | 36834 ft | 495 kts | 119° |
| 2026-04-26 15:00 | 13.53980 | 81.77777 | 36816 ft | 496 kts | 119° |
| 2026-04-26 15:01 | 13.50879 | 81.84107 | 36818 ft | 496 kts | 119° |
| 2026-04-26 15:01 | 13.47773 | 81.90446 | 36820 ft | 496 kts | 119° |
| 2026-04-26 15:02 | 13.44668 | 81.96776 | 36818 ft | 496 kts | 119° |
| 2026-04-26 15:02 | 13.41563 | 82.03099 | 36815 ft | 496 kts | 119° |
| 2026-04-26 15:03 | 13.38460 | 82.09419 | 36816 ft | 495 kts | 119° |
| 2026-04-26 15:03 | 13.35354 | 82.15739 | 36810 ft | 495 kts | 119° |
| 2026-04-26 15:04 | 13.32251 | 82.22044 | 36816 ft | 495 kts | 119° |
| 2026-04-26 15:04 | 13.29162 | 82.28316 | 36813 ft | 495 kts | 119° |
| 2026-04-26 15:05 | 13.26044 | 82.34641 | 36813 ft | 496 kts | 119° |
| 2026-04-26 15:05 | 13.22933 | 82.40953 | 36814 ft | 496 kts | 119° |
| 2026-04-26 15:06 | 13.19817 | 82.47267 | 36817 ft | 496 kts | 119° |
| 2026-04-26 15:06 | 13.16699 | 82.53580 | 36815 ft | 495 kts | 119° |
| 2026-04-26 15:07 | 13.12019 | 82.63053 | 36814 ft | 496 kts | 119° |
| 2026-04-26 15:07 | 13.08896 | 82.69363 | 36812 ft | 496 kts | 119° |
| 2026-04-26 15:08 | 13.05770 | 82.75672 | 36835 ft | 496 kts | 119° |
| 2026-04-26 15:08 | 13.02647 | 82.81978 | 36856 ft | 496 kts | 119° |
| 2026-04-26 15:09 | 12.99524 | 82.88278 | 36864 ft | 496 kts | 118° |
| 2026-04-26 15:09 | 12.96410 | 82.94551 | 36816 ft | 497 kts | 118° |
| 2026-04-26 15:10 | 12.93778 | 82.99850 | 36817 ft | 498 kts | 118° |
| 2026-04-26 15:10 | 12.90120 | 83.07207 | 36811 ft | 498 kts | 118° |
| 2026-04-26 15:11 | 12.86971 | 83.13543 | 36812 ft | 498 kts | 118° |
| 2026-04-26 15:11 | 12.83823 | 83.19870 | 36816 ft | 498 kts | 118° |
| 2026-04-26 15:12 | 12.80674 | 83.26191 | 36812 ft | 498 kts | 118° |
| 2026-04-26 15:12 | 12.77526 | 83.32508 | 36814 ft | 498 kts | 118° |
| 2026-04-26 15:13 | 12.74374 | 83.38826 | 36813 ft | 497 kts | 118° |
| 2026-04-26 15:13 | 12.71251 | 83.45084 | 36812 ft | 497 kts | 118° |
| 2026-04-26 15:14 | 12.68100 | 83.51396 | 36813 ft | 497 kts | 118° |
| 2026-04-26 15:14 | 12.64962 | 83.57696 | 36814 ft | 496 kts | 117° |
| 2026-04-26 15:15 | 12.61907 | 83.64033 | 36817 ft | 496 kts | 117° |
| 2026-04-26 15:15 | 12.58876 | 83.70382 | 36816 ft | 496 kts | 117° |
| 2026-04-26 15:16 | 12.55857 | 83.76684 | 36815 ft | 496 kts | 117° |
| 2026-04-26 15:16 | 12.52808 | 83.83023 | 36814 ft | 497 kts | 117° |
| 2026-04-26 15:17 | 12.50265 | 83.88301 | 36820 ft | 497 kts | 117° |
| 2026-04-26 15:17 | 12.46690 | 83.95710 | 36814 ft | 497 kts | 117° |
| 2026-04-26 15:18 | 12.43626 | 84.02058 | 36816 ft | 497 kts | 117° |
| 2026-04-26 15:18 | 12.40564 | 84.08398 | 36814 ft | 497 kts | 117° |
| 2026-04-26 15:19 | 12.37500 | 84.14739 | 36814 ft | 497 kts | 117° |
| 2026-04-26 15:19 | 12.34435 | 84.21076 | 36817 ft | 497 kts | 117° |
| 2026-04-26 15:20 | 12.31359 | 84.27420 | 36809 ft | 497 kts | 117° |
| 2026-04-26 15:20 | 12.28295 | 84.33754 | 36814 ft | 497 kts | 117° |
| 2026-04-26 15:21 | 12.25257 | 84.40039 | 36818 ft | 496 kts | 117° |
| 2026-04-26 15:21 | 12.22191 | 84.46360 | 36814 ft | 496 kts | 117° |
| 2026-04-26 15:22 | 12.19119 | 84.52685 | 36813 ft | 496 kts | 117° |
| 2026-04-26 15:22 | 12.16050 | 84.58999 | 36817 ft | 496 kts | 117° |
| 2026-04-26 15:23 | 12.12976 | 84.65322 | 36819 ft | 496 kts | 117° |
| 2026-04-26 15:23 | 12.09906 | 84.71636 | 36810 ft | 495 kts | 117° |
| 2026-04-26 15:24 | 12.06839 | 84.77941 | 36812 ft | 495 kts | 117° |
| 2026-04-26 15:24 | 12.03790 | 84.84202 | 36813 ft | 495 kts | 117° |
| 2026-04-26 15:25 | 12.01214 | 84.89487 | 36816 ft | 495 kts | 117° |
| 2026-04-26 15:25 | 11.97644 | 84.96807 | 36835 ft | 495 kts | 117° |
| 2026-04-26 15:26 | 11.94576 | 85.03093 | 36814 ft | 494 kts | 117° |
| 2026-04-26 15:26 | 11.91517 | 85.09358 | 36818 ft | 492 kts | 117° |
| 2026-04-26 15:27 | 11.88458 | 85.15619 | 36827 ft | 491 kts | 117° |
| 2026-04-26 15:27 | 11.85409 | 85.21853 | 36818 ft | 490 kts | 117° |
| 2026-04-26 15:28 | 11.82381 | 85.28039 | 36816 ft | 490 kts | 117° |
| 2026-04-26 15:28 | 11.79327 | 85.34274 | 36830 ft | 490 kts | 117° |
| 2026-04-26 15:29 | 11.76284 | 85.40485 | 36822 ft | 489 kts | 117° |
| 2026-04-26 15:30 | 11.70200 | 85.52894 | 36842 ft | 489 kts | 117° |
| 2026-04-26 15:30 | 11.67155 | 85.59094 | 36844 ft | 489 kts | 117° |
| 2026-04-26 15:31 | 11.62575 | 85.68414 | 36838 ft | 490 kts | 117° |
| 2026-04-26 15:32 | 11.59023 | 85.75639 | 36844 ft | 491 kts | 117° |
| 2026-04-26 15:32 | 11.54926 | 85.83962 | 36843 ft | 491 kts | 117° |
| 2026-04-26 15:33 | 11.51880 | 85.90146 | 36848 ft | 491 kts | 117° |
| 2026-04-26 15:33 | 11.48815 | 85.96366 | 36853 ft | 491 kts | 117° |
| 2026-04-26 15:34 | 11.45746 | 86.02590 | 36851 ft | 491 kts | 117° |
| 2026-04-26 15:34 | 11.42676 | 86.08809 | 36854 ft | 491 kts | 117° |
| 2026-04-26 15:35 | 11.40128 | 86.13968 | 36850 ft | 490 kts | 117° |
| 2026-04-26 15:35 | 11.37062 | 86.20175 | 36851 ft | 490 kts | 117° |
| 2026-04-26 15:36 | 11.33994 | 86.26376 | 36850 ft | 489 kts | 117° |
| 2026-04-26 15:36 | 11.30929 | 86.32572 | 36852 ft | 489 kts | 117° |
| 2026-04-26 15:37 | 11.27873 | 86.38750 | 36852 ft | 489 kts | 117° |
| 2026-04-26 15:37 | 11.24831 | 86.44890 | 36851 ft | 489 kts | 117° |
| 2026-04-26 15:38 | 11.21763 | 86.51077 | 36852 ft | 489 kts | 117° |
| 2026-04-26 15:38 | 11.18699 | 86.57255 | 36852 ft | 489 kts | 117° |
| 2026-04-26 15:39 | 11.15631 | 86.63437 | 36853 ft | 489 kts | 117° |
| 2026-04-26 15:39 | 11.13083 | 86.68567 | 36851 ft | 488 kts | 117° |
| 2026-04-26 15:40 | 11.09501 | 86.75782 | 36850 ft | 488 kts | 117° |
| 2026-04-26 15:40 | 11.06435 | 86.81946 | 36848 ft | 489 kts | 117° |
| 2026-04-26 15:41 | 11.03365 | 86.88115 | 36856 ft | 488 kts | 117° |
| 2026-04-26 15:41 | 11.00317 | 86.94237 | 36859 ft | 487 kts | 117° |
| 2026-04-26 15:42 | 10.97252 | 87.00389 | 36861 ft | 487 kts | 117° |
| 2026-04-26 15:42 | 10.94188 | 87.06537 | 36860 ft | 487 kts | 117° |
| 2026-04-26 15:43 | 10.91119 | 87.12689 | 36860 ft | 487 kts | 117° |
| 2026-04-26 15:44 | 10.86523 | 87.21898 | 36862 ft | 487 kts | 117° |
| 2026-04-26 15:44 | 10.81923 | 87.31108 | 36862 ft | 487 kts | 117° |
| 2026-04-26 15:45 | 10.77332 | 87.40288 | 36861 ft | 488 kts | 117° |
| 2026-04-26 15:46 | 10.72712 | 87.49524 | 36862 ft | 488 kts | 117° |
| 2026-04-26 15:46 | 10.70150 | 87.54638 | 36861 ft | 489 kts | 117° |
| 2026-04-26 15:47 | 10.65000 | 87.64916 | 36861 ft | 489 kts | 117° |
| 2026-04-26 15:48 | 10.61910 | 87.71078 | 36863 ft | 489 kts | 117° |
| 2026-04-26 15:48 | 10.58821 | 87.77229 | 36861 ft | 489 kts | 117° |
| 2026-04-26 15:49 | 10.55734 | 87.83376 | 36861 ft | 488 kts | 117° |
| 2026-04-26 15:49 | 10.52663 | 87.89488 | 36860 ft | 488 kts | 117° |
| 2026-04-26 15:50 | 10.49576 | 87.95629 | 36861 ft | 488 kts | 117° |
| 2026-04-26 15:50 | 10.46481 | 88.01779 | 36861 ft | 488 kts | 117° |
| 2026-04-26 15:51 | 10.43389 | 88.07924 | 36861 ft | 488 kts | 117° |
| 2026-04-26 15:51 | 10.40301 | 88.14055 | 36860 ft | 488 kts | 117° |
| 2026-04-26 15:52 | 10.37211 | 88.20187 | 36861 ft | 487 kts | 117° |
| 2026-04-26 15:52 | 10.34235 | 88.26089 | 36861 ft | 487 kts | 117° |
| 2026-04-26 15:53 | 10.31147 | 88.32212 | 36862 ft | 487 kts | 117° |
| 2026-04-26 15:53 | 10.28052 | 88.38345 | 36861 ft | 487 kts | 117° |
| 2026-04-26 15:54 | 10.24981 | 88.44428 | 36861 ft | 487 kts | 117° |
| 2026-04-26 15:54 | 10.21889 | 88.50547 | 36861 ft | 487 kts | 117° |
| 2026-04-26 15:55 | 10.18856 | 88.56686 | 36860 ft | 487 kts | 115° |
| 2026-04-26 15:55 | 10.16052 | 88.62846 | 36862 ft | 487 kts | 115° |
| 2026-04-26 15:56 | 10.13240 | 88.69102 | 36860 ft | 486 kts | 115° |
| 2026-04-26 15:56 | 10.10403 | 88.75340 | 36864 ft | 486 kts | 115° |
| 2026-04-26 15:57 | 10.07551 | 88.81562 | 36860 ft | 486 kts | 115° |
| 2026-04-26 15:57 | 10.04695 | 88.87779 | 36861 ft | 486 kts | 115° |
| 2026-04-26 15:58 | 10.01838 | 88.93986 | 36861 ft | 486 kts | 115° |
| 2026-04-26 15:58 | 9.99000 | 89.00154 | 36863 ft | 486 kts | 115° |
| 2026-04-26 15:59 | 9.96147 | 89.06358 | 36861 ft | 485 kts | 115° |
| 2026-04-26 15:59 | 9.93295 | 89.12555 | 36862 ft | 485 kts | 115° |
| 2026-04-26 16:00 | 9.90443 | 89.18747 | 36860 ft | 484 kts | 115° |
| 2026-04-26 16:00 | 9.87591 | 89.24938 | 36862 ft | 483 kts | 116° |
| 2026-04-26 16:01 | 9.84745 | 89.31110 | 36860 ft | 483 kts | 116° |
| 2026-04-26 16:01 | 9.81902 | 89.37274 | 36862 ft | 482 kts | 116° |
| 2026-04-26 16:02 | 9.79057 | 89.43435 | 36861 ft | 482 kts | 116° |
| 2026-04-26 16:02 | 9.76214 | 89.49592 | 36862 ft | 482 kts | 116° |
| 2026-04-26 16:03 | 9.73367 | 89.55753 | 36861 ft | 482 kts | 116° |
| 2026-04-26 16:03 | 9.70519 | 89.61909 | 36862 ft | 482 kts | 116° |
| 2026-04-26 16:04 | 9.67693 | 89.68017 | 36863 ft | 482 kts | 116° |
| 2026-04-26 16:04 | 9.64880 | 89.74095 | 36860 ft | 482 kts | 116° |
| 2026-04-26 16:05 | 9.62033 | 89.80243 | 36862 ft | 482 kts | 116° |
| 2026-04-26 16:05 | 9.59183 | 89.86392 | 36859 ft | 482 kts | 116° |
| 2026-04-26 16:06 | 9.56334 | 89.92538 | 36861 ft | 482 kts | 116° |
| 2026-04-26 16:06 | 9.53556 | 89.98526 | 36862 ft | 482 kts | 116° |
| 2026-04-26 16:07 | 9.50700 | 90.04677 | 36861 ft | 482 kts | 116° |
| 2026-04-26 16:07 | 9.47865 | 90.10783 | 36862 ft | 482 kts | 116° |
| 2026-04-26 16:08 | 9.45010 | 90.16929 | 36860 ft | 482 kts | 116° |
| 2026-04-26 16:08 | 9.42157 | 90.23064 | 36861 ft | 482 kts | 116° |
| 2026-04-26 16:09 | 9.39301 | 90.29204 | 36859 ft | 481 kts | 116° |
| 2026-04-26 16:09 | 9.36448 | 90.35333 | 36863 ft | 481 kts | 116° |
| 2026-04-26 16:10 | 9.33596 | 90.41457 | 36861 ft | 481 kts | 116° |
| 2026-04-26 16:10 | 9.30739 | 90.47593 | 36861 ft | 481 kts | 116° |
| 2026-04-26 16:11 | 9.27881 | 90.53722 | 36860 ft | 481 kts | 116° |
| 2026-04-26 16:11 | 9.25044 | 90.59800 | 36861 ft | 481 kts | 116° |
| 2026-04-26 16:12 | 9.22186 | 90.65928 | 36863 ft | 480 kts | 116° |
| 2026-04-26 16:12 | 9.17901 | 90.75103 | 36860 ft | 480 kts | 116° |
| 2026-04-26 16:13 | 9.15047 | 90.81214 | 36860 ft | 480 kts | 116° |
| 2026-04-26 16:13 | 9.12195 | 90.87315 | 36862 ft | 480 kts | 116° |
| 2026-04-26 16:14 | 9.09339 | 90.93421 | 36861 ft | 480 kts | 116° |
| 2026-04-26 16:15 | 9.05076 | 91.02526 | 36861 ft | 480 kts | 116° |
| 2026-04-26 16:15 | 9.02217 | 91.08631 | 36861 ft | 480 kts | 116° |
| 2026-04-26 16:16 | 8.97933 | 91.17774 | 36861 ft | 480 kts | 116° |
| 2026-04-26 16:16 | 8.95073 | 91.23872 | 36860 ft | 479 kts | 116° |
| 2026-04-26 16:17 | 8.92213 | 91.29966 | 36861 ft | 479 kts | 116° |
| 2026-04-26 16:17 | 8.89356 | 91.36054 | 36862 ft | 479 kts | 116° |
| 2026-04-26 16:18 | 8.85074 | 91.45171 | 36861 ft | 478 kts | 116° |
| 2026-04-26 16:19 | 8.80789 | 91.54288 | 36862 ft | 478 kts | 116° |
| 2026-04-26 16:20 | 8.76505 | 91.63395 | 36861 ft | 478 kts | 116° |
| 2026-04-26 16:20 | 8.72240 | 91.72457 | 36861 ft | 478 kts | 116° |
| 2026-04-26 16:21 | 8.69383 | 91.78523 | 36860 ft | 477 kts | 116° |
| 2026-04-26 16:21 | 8.66529 | 91.84581 | 36861 ft | 477 kts | 116° |
| 2026-04-26 16:22 | 8.63677 | 91.90629 | 36861 ft | 477 kts | 116° |
| 2026-04-26 16:22 | 8.60823 | 91.96682 | 36860 ft | 476 kts | 116° |
| 2026-04-26 16:23 | 8.58004 | 92.02732 | 36861 ft | 476 kts | 115° |
| 2026-04-26 16:23 | 8.55759 | 92.07809 | 36860 ft | 476 kts | 115° |
| 2026-04-26 16:24 | 8.53077 | 92.13927 | 36861 ft | 475 kts | 115° |
| 2026-04-26 16:24 | 8.49949 | 92.21020 | 36860 ft | 475 kts | 115° |
| 2026-04-26 16:25 | 8.47249 | 92.27111 | 36862 ft | 475 kts | 115° |
| 2026-04-26 16:25 | 8.45004 | 92.32168 | 36860 ft | 475 kts | 115° |
| 2026-04-26 16:26 | 8.42301 | 92.38253 | 36861 ft | 475 kts | 115° |
| 2026-04-26 16:26 | 8.39599 | 92.44336 | 36862 ft | 474 kts | 115° |
| 2026-04-26 16:27 | 8.36897 | 92.50420 | 36863 ft | 475 kts | 115° |
| 2026-04-26 16:27 | 8.34191 | 92.56507 | 36862 ft | 475 kts | 115° |
| 2026-04-26 16:28 | 8.31478 | 92.62603 | 36860 ft | 475 kts | 115° |
| 2026-04-26 16:28 | 8.28768 | 92.68692 | 36862 ft | 475 kts | 115° |
| 2026-04-26 16:29 | 8.26058 | 92.74777 | 36861 ft | 475 kts | 115° |
| 2026-04-26 16:29 | 8.23363 | 92.80828 | 36855 ft | 476 kts | 115° |
| 2026-04-26 16:30 | 8.20648 | 92.86921 | 36851 ft | 476 kts | 115° |
| 2026-04-26 16:30 | 8.17985 | 92.92895 | 36851 ft | 476 kts | 115° |
| 2026-04-26 16:31 | 8.15270 | 92.98983 | 36853 ft | 475 kts | 115° |
| 2026-04-26 16:31 | 8.12574 | 93.05024 | 36853 ft | 475 kts | 115° |
| 2026-04-26 16:32 | 8.09865 | 93.11094 | 36860 ft | 474 kts | 115° |
| 2026-04-26 16:32 | 8.07159 | 93.17149 | 36861 ft | 473 kts | 115° |
| 2026-04-26 16:33 | 8.04450 | 93.23210 | 36862 ft | 474 kts | 115° |
| 2026-04-26 16:33 | 8.01741 | 93.29270 | 36861 ft | 473 kts | 115° |
| 2026-04-26 16:34 | 7.99035 | 93.35321 | 36864 ft | 473 kts | 115° |
| 2026-04-26 16:34 | 7.96326 | 93.41376 | 36861 ft | 472 kts | 115° |
| 2026-04-26 16:35 | 7.93821 | 93.47457 | 36855 ft | 472 kts | 107° |
| 2026-04-26 16:35 | 7.92799 | 93.53999 | 36864 ft | 474 kts | 92° |
| 2026-04-26 16:36 | 7.93107 | 93.60645 | 36866 ft | 474 kts | 87° |
| 2026-04-26 16:36 | 7.93569 | 93.67293 | 36861 ft | 475 kts | 87° |
| 2026-04-26 16:37 | 7.93989 | 93.73940 | 36862 ft | 475 kts | 88° |
| 2026-04-26 16:37 | 7.94374 | 93.80595 | 36861 ft | 475 kts | 88° |
| 2026-04-26 16:38 | 7.94747 | 93.87214 | 36862 ft | 476 kts | 88° |
| 2026-04-26 16:38 | 7.95121 | 93.93880 | 36861 ft | 476 kts | 88° |
| 2026-04-26 16:39 | 7.95498 | 94.00541 | 36859 ft | 476 kts | 88° |
| 2026-04-26 16:39 | 7.95875 | 94.07218 | 36860 ft | 476 kts | 88° |
| 2026-04-26 16:40 | 7.96250 | 94.13888 | 36861 ft | 476 kts | 88° |
| 2026-04-26 16:40 | 7.96623 | 94.20563 | 36862 ft | 476 kts | 88° |
| 2026-04-26 16:41 | 7.96992 | 94.27171 | 36860 ft | 476 kts | 88° |
| 2026-04-26 16:41 | 7.97364 | 94.33844 | 36862 ft | 475 kts | 88° |
| 2026-04-26 16:42 | 7.97734 | 94.40503 | 36863 ft | 475 kts | 88° |
| 2026-04-26 16:42 | 7.98007 | 94.47169 | 36860 ft | 475 kts | 90° |
| 2026-04-26 16:43 | 7.98149 | 94.53839 | 36861 ft | 475 kts | 90° |
| 2026-04-26 16:43 | 7.98293 | 94.60517 | 36859 ft | 476 kts | 90° |
| 2026-04-26 16:44 | 7.98454 | 94.67145 | 36861 ft | 475 kts | 90° |
| 2026-04-26 16:44 | 7.98625 | 94.73809 | 36862 ft | 475 kts | 90° |
| 2026-04-26 16:45 | 7.98795 | 94.80484 | 36861 ft | 476 kts | 90° |
| 2026-04-26 16:45 | 7.98964 | 94.87167 | 36861 ft | 476 kts | 90° |
| 2026-04-26 16:46 | 7.99130 | 94.93847 | 36870 ft | 476 kts | 90° |
| 2026-04-26 16:46 | 7.99295 | 95.00531 | 36873 ft | 476 kts | 90° |
| 2026-04-26 16:47 | 7.99459 | 95.07212 | 36870 ft | 477 kts | 90° |
| 2026-04-26 16:47 | 7.99623 | 95.13875 | 36871 ft | 477 kts | 90° |
| 2026-04-26 16:48 | 7.99786 | 95.20568 | 36868 ft | 478 kts | 90° |
| 2026-04-26 16:48 | 7.99947 | 95.27276 | 36870 ft | 478 kts | 90° |
| 2026-04-26 16:49 | 8.00108 | 95.33974 | 36867 ft | 478 kts | 90° |
| 2026-04-26 16:49 | 8.00269 | 95.40696 | 36875 ft | 478 kts | 90° |
| 2026-04-26 16:50 | 8.00427 | 95.47410 | 36871 ft | 478 kts | 90° |
| 2026-04-26 16:50 | 8.00600 | 95.54123 | 36870 ft | 479 kts | 89° |
| 2026-04-26 16:51 | 8.00824 | 95.60847 | 36870 ft | 479 kts | 89° |
| 2026-04-26 16:51 | 8.01056 | 95.67562 | 36870 ft | 479 kts | 89° |
| 2026-04-26 16:52 | 8.01244 | 95.73145 | 36870 ft | 479 kts | 89° |
| 2026-04-26 16:52 | 8.01497 | 95.80962 | 36871 ft | 479 kts | 89° |
| 2026-04-26 16:53 | 8.01712 | 95.87685 | 36870 ft | 479 kts | 89° |
| 2026-04-26 16:53 | 8.01927 | 95.94407 | 36870 ft | 479 kts | 89° |
| 2026-04-26 16:54 | 8.02142 | 96.01136 | 36436 ft | 480 kts | 89° |
| 2026-04-26 16:54 | 8.02248 | 96.04484 | 35981 ft | 475 kts | 89° |
| 2026-04-26 16:54 | 8.02354 | 96.07795 | 35490 ft | 470 kts | 89° |
| 2026-04-26 16:55 | 8.02458 | 96.11080 | 34993 ft | 466 kts | 89° |
| 2026-04-26 16:55 | 8.02561 | 96.14335 | 34486 ft | 462 kts | 89° |
| 2026-04-26 16:55 | 8.02664 | 96.17563 | 33987 ft | 459 kts | 89° |
| 2026-04-26 16:55 | 8.02764 | 96.20764 | 33493 ft | 455 kts | 89° |
| 2026-04-26 16:56 | 8.02961 | 96.27091 | 32512 ft | 447 kts | 89° |
| 2026-04-26 16:56 | 8.03057 | 96.30213 | 32028 ft | 443 kts | 88° |
| 2026-04-26 16:56 | 8.03153 | 96.33307 | 31545 ft | 439 kts | 88° |
| 2026-04-26 16:57 | 8.03248 | 96.36375 | 31065 ft | 435 kts | 88° |
| 2026-04-26 16:57 | 8.03342 | 96.39378 | 30589 ft | 431 kts | 88° |
| 2026-04-26 16:57 | 8.03526 | 96.45381 | 29653 ft | 423 kts | 88° |
| 2026-04-26 16:58 | 8.03617 | 96.48336 | 29174 ft | 420 kts | 88° |
| 2026-04-26 16:58 | 8.03677 | 96.50281 | 28862 ft | 417 kts | 88° |
| 2026-04-26 16:58 | 8.03884 | 96.57064 | 27761 ft | 409 kts | 88° |
| 2026-04-26 16:59 | 8.03971 | 96.59921 | 27298 ft | 406 kts | 88° |
| 2026-04-26 16:59 | 8.04142 | 96.65541 | 26388 ft | 399 kts | 88° |
| 2026-04-26 17:00 | 8.04310 | 96.71100 | 25485 ft | 393 kts | 88° |
| 2026-04-26 17:00 | 8.04474 | 96.76571 | 24599 ft | 387 kts | 88° |
| 2026-04-26 17:00 | 8.04555 | 96.79278 | 24158 ft | 384 kts | 88° |
| 2026-04-26 17:01 | 8.04635 | 96.81964 | 23722 ft | 381 kts | 88° |
| 2026-04-26 17:01 | 8.04715 | 96.84629 | 23290 ft | 379 kts | 88° |
| 2026-04-26 17:01 | 8.04794 | 96.87273 | 22862 ft | 376 kts | 88° |
| 2026-04-26 17:01 | 8.04872 | 96.89906 | 22431 ft | 373 kts | 88° |
| 2026-04-26 17:02 | 8.04949 | 96.92514 | 22007 ft | 371 kts | 88° |
| 2026-04-26 17:02 | 8.05025 | 96.95105 | 21586 ft | 368 kts | 88° |
| 2026-04-26 17:02 | 8.05100 | 96.97676 | 21151 ft | 365 kts | 88° |
| 2026-04-26 17:02 | 8.05175 | 97.00200 | 20751 ft | 363 kts | 88° |
| 2026-04-26 17:03 | 8.05250 | 97.02740 | 20333 ft | 361 kts | 88° |
| 2026-04-26 17:03 | 8.05324 | 97.05266 | 19914 ft | 359 kts | 88° |
| 2026-04-26 17:03 | 8.05398 | 97.07779 | 19498 ft | 357 kts | 87° |
| 2026-04-26 17:03 | 8.05471 | 97.10280 | 19073 ft | 356 kts | 88° |
| 2026-04-26 17:04 | 8.05544 | 97.12772 | 18662 ft | 354 kts | 88° |
| 2026-04-26 17:04 | 8.05616 | 97.15254 | 18243 ft | 353 kts | 87° |
| 2026-04-26 17:04 | 8.05688 | 97.17721 | 17828 ft | 352 kts | 88° |
| 2026-04-26 17:04 | 8.05760 | 97.20180 | 17412 ft | 350 kts | 88° |
| 2026-04-26 17:05 | 8.05840 | 97.22635 | 16996 ft | 349 kts | 87° |
| 2026-04-26 17:05 | 8.05961 | 97.25075 | 16582 ft | 348 kts | 86° |
| 2026-04-26 17:05 | 8.06099 | 97.27512 | 16163 ft | 347 kts | 86° |
| 2026-04-26 17:05 | 8.06239 | 97.29937 | 15751 ft | 346 kts | 86° |
| 2026-04-26 17:06 | 8.06376 | 97.32355 | 15343 ft | 345 kts | 86° |
| 2026-04-26 17:06 | 8.06510 | 97.34771 | 14929 ft | 344 kts | 86° |
| 2026-04-26 17:06 | 8.06642 | 97.37178 | 14517 ft | 343 kts | 86° |
| 2026-04-26 17:06 | 8.06773 | 97.39585 | 14104 ft | 342 kts | 87° |
| 2026-04-26 17:07 | 8.06900 | 97.41948 | 13698 ft | 341 kts | 87° |
| 2026-04-26 17:07 | 8.07029 | 97.44335 | 13279 ft | 336 kts | 87° |
| 2026-04-26 17:07 | 8.07152 | 97.46631 | 12880 ft | 323 kts | 87° |
| 2026-04-26 17:07 | 8.07274 | 97.48893 | 12499 ft | 323 kts | 87° |
| 2026-04-26 17:08 | 8.07395 | 97.51157 | 12115 ft | 323 kts | 88° |
| 2026-04-26 17:08 | 8.07516 | 97.53416 | 11717 ft | 322 kts | 88° |
| 2026-04-26 17:08 | 8.07636 | 97.55670 | 11416 ft | 320 kts | 88° |
| 2026-04-26 17:08 | 8.07752 | 97.57906 | 11049 ft | 319 kts | 88° |
| 2026-04-26 17:09 | 8.07865 | 97.60139 | 10673 ft | 318 kts | 87° |
| 2026-04-26 17:09 | 8.07903 | 97.60861 | 10550 ft | 318 kts | 87° |
| 2026-04-26 17:09 | 8.08093 | 97.64534 | 10238 ft | 306 kts | 87° |
| 2026-04-26 17:09 | 8.08202 | 97.66656 | 10096 ft | 299 kts | 87° |
| 2026-04-26 17:10 | 8.08307 | 97.68718 | 9928 ft | 292 kts | 87° |
| 2026-04-26 17:10 | 8.08411 | 97.70739 | 9599 ft | 291 kts | 87° |
| 2026-04-26 17:10 | 8.08515 | 97.72763 | 9261 ft | 282 kts | 87° |
| 2026-04-26 17:10 | 8.08613 | 97.74712 | 8950 ft | 272 kts | 87° |
| 2026-04-26 17:11 | 8.08709 | 97.76588 | 8650 ft | 271 kts | 87° |
| 2026-04-26 17:11 | 8.08806 | 97.78490 | 8349 ft | 271 kts | 87° |
| 2026-04-26 17:11 | 8.08900 | 97.80386 | 8026 ft | 269 kts | 88° |
| 2026-04-26 17:11 | 8.08816 | 97.82274 | 7717 ft | 269 kts | 95° |
| 2026-04-26 17:12 | 8.08413 | 97.86022 | 7093 ft | 269 kts | 95° |
| 2026-04-26 17:12 | 8.08228 | 97.87904 | 6780 ft | 269 kts | 95° |
| 2026-04-26 17:13 | 8.07886 | 97.91609 | 6147 ft | 256 kts | 95° |
| 2026-04-26 17:13 | 8.07729 | 97.93385 | 5985 ft | 250 kts | 94° |
| 2026-04-26 17:13 | 8.07950 | 97.96637 | 5739 ft | 219 kts | 84° |
| 2026-04-26 17:14 | 8.08112 | 97.98108 | 5643 ft | 208 kts | 84° |
| 2026-04-26 17:14 | 8.08358 | 98.00495 | 5449 ft | 211 kts | 84° |
| 2026-04-26 17:14 | 8.08505 | 98.01985 | 5272 ft | 215 kts | 84° |
| 2026-04-26 17:15 | 8.08804 | 98.04971 | 4701 ft | 209 kts | 84° |
| 2026-04-26 17:15 | 8.08996 | 98.06924 | 4370 ft | 213 kts | 84° |
| 2026-04-26 17:15 | 8.09141 | 98.08418 | 4107 ft | 214 kts | 85° |
| 2026-04-26 17:16 | 8.09237 | 98.09411 | 3911 ft | 207 kts | 85° |
| 2026-04-26 17:16 | 8.09375 | 98.10848 | 3678 ft | 209 kts | 85° |
| 2026-04-26 17:16 | 8.09512 | 98.12331 | 3432 ft | 215 kts | 85° |
| 2026-04-26 17:16 | 8.09653 | 98.13840 | 3165 ft | 216 kts | 85° |
| 2026-04-26 17:17 | 8.09790 | 98.15316 | 3062 ft | 206 kts | 85° |
| 2026-04-26 17:17 | 8.09921 | 98.16730 | 2951 ft | 198 kts | 85° |
| 2026-04-26 17:17 | 8.10050 | 98.18113 | 2668 ft | 192 kts | 84° |
| 2026-04-26 17:17 | 8.10170 | 98.19406 | 2605 ft | 184 kts | 84° |
| 2026-04-26 17:18 | 8.10289 | 98.20697 | 2652 ft | 183 kts | 85° |
| 2026-04-26 17:18 | 8.10403 | 98.21931 | 2438 ft | 173 kts | 84° |
| 2026-04-26 17:18 | 8.10510 | 98.23075 | 2086 ft | 158 kts | 84° |
| 2026-04-26 17:18 | 8.10612 | 98.24146 | 1591 ft | 150 kts | 84° |
| 2026-04-26 17:19 | 8.10805 | 98.26182 | 888 ft | 146 kts | 83° |
| 2026-04-26 17:19 | 8.10903 | 98.27228 | 744 ft | 150 kts | 82° |
| 2026-04-26 17:19 | 8.11009 | 98.28281 | 570 ft | 152 kts | 83° |
| 2026-04-26 17:20 | 8.11101 | 98.29340 | 318 ft | 150 kts | 84° |
| 2026-04-26 17:20 | 8.11157 | 98.30029 | 153 ft | 148 kts | 81° |
| 2026-04-26 17:20 | 8.11291 | 98.31350 | 38 ft | 122 kts | 85° |
| 2026-04-26 17:20 | 8.11356 | 98.32018 | 59 ft | 69 kts | 84° |
| 2026-04-26 17:21 | 8.11358 | 98.32328 | 76 ft | 32 kts | 105° |
| 2026-04-26 17:21 | 8.11276 | 98.32423 | 85 ft | 15 kts | 200° |
| 2026-04-26 17:21 | 8.11246 | 98.32325 | 73 ft | 16 kts | 264° |
| 2026-04-26 17:21 | 8.11232 | 98.32200 | 70 ft | 20 kts | 263° |
| 2026-04-26 17:22 | 8.11220 | 98.32063 | 67 ft | 20 kts | 266° |
| 2026-04-26 17:22 | 8.11211 | 98.31960 | 56 ft | 12 kts | 264° |
| 2026-04-26 17:22 | 8.11203 | 98.31866 | 51 ft | 15 kts | 265° |
| 2026-04-26 17:22 | 8.11191 | 98.31746 | 51 ft | 19 kts | 264° |
| 2026-04-26 17:23 | 8.11178 | 98.31603 | 47 ft | 20 kts | 265° |
| 2026-04-26 17:23 | 8.11164 | 98.31450 | 41 ft | 23 kts | 264° |
| 2026-04-26 17:23 | 8.11151 | 98.31312 | 37 ft | 20 kts | 264° |
| 2026-04-26 17:23 | 8.11138 | 98.31173 | 35 ft | 20 kts | 264° |
| 2026-04-26 17:24 | 8.11125 | 98.31035 | 35 ft | 18 kts | 263° |
| 2026-04-26 17:24 | 8.11088 | 98.30915 | 34 ft | 18 kts | 255° |
| 2026-04-26 17:24 | 8.11075 | 98.30791 | 33 ft | 18 kts | 264° |
| 2026-04-26 17:24 | 8.11063 | 98.30667 | 33 ft | 18 kts | 264° |
| 2026-04-26 17:25 | 8.11052 | 98.30548 | 32 ft | 17 kts | 264° |
| 2026-04-26 17:25 | 8.10978 | 98.30474 | 32 ft | 16 kts | 194° |
| 2026-04-26 17:25 | 8.10889 | 98.30452 | 32 ft | 10 kts | 195° |
| 2026-04-26 17:25 | 8.10827 | 98.30435 | 32 ft | 9 kts | 194° |
| 2026-04-26 17:26 | 8.10798 | 98.30428 | 32 ft | 3 kts | 194° |
| 2026-04-26 17:26 | 8.10772 | 98.30421 | 32 ft | 5 kts | 195° |
| 2026-04-26 17:26 | 8.10735 | 98.30411 | 32 ft | 6 kts | 195° |
| 2026-04-26 17:26 | 8.10690 | 98.30404 | 32 ft | 7 kts | 166° |
| 2026-04-26 17:27 | 8.10663 | 98.30445 | 32 ft | 8 kts | 110° |
| 2026-04-26 17:27 | 8.10658 | 98.30463 | 32 ft | 2 kts | 106° |
| 2026-04-26 17:27 | 8.10655 | 98.30474 | 32 ft | 1 kts | 105° |
| 2026-04-26 17:27 | 8.10653 | 98.30478 | 32 ft | 0 kts | 105° |